Time;durP1;ratioP1;P1;durP2;ratioP2;P2;SDS_P1;SDS_P2;PMS_P1;PMS_P2;Temp;Humidity;BMP_temperature;BMP_pressure;BME280_temperature;BME280_humidity;BME280_pressure;Samples;Min_cycle;Max_cycle;Signal;HPM_P1;HPM_P2
2021/07/28 00:02:20;;;;;;;;;;;25.50;69.90;;;;;;5134740;27;19989;-60
2021/07/28 00:04:47;;;;;;;;;;;25.40;69.80;;;;;;5134447;27;19923;-59
2021/07/28 00:07:14;;;;;;;;;;;25.40;69.80;;;;;;5135895;27;19923;-59
2021/07/28 00:09:41;;;;;;;;;;;25.40;69.80;;;;;;5127459;27;20279;-59
2021/07/28 00:12:08;;;;;;;;;;;25.40;70.50;;;;;;5124953;27;20290;-59
2021/07/28 00:14:35;;;;;;;;;;;25.40;69.70;;;;;;5134554;27;20332;-59
2021/07/28 00:17:03;;;;;;;;;;;25.50;69.80;;;;;;5135498;27;19923;-60
2021/07/28 00:19:43;;;;;;;;;;;25.40;69.80;;;;;;5135514;27;19968;-59
2021/07/28 00:24:56;;;;;;;;;;;25.40;69.90;;;;;;5135563;27;19924;-60
2021/07/28 00:27:23;;;;;;;;;;;25.40;69.80;;;;;;5133792;27;20369;-60
2021/07/28 00:29:50;;;;;;;;;;;25.40;69.80;;;;;;5115608;27;20353;-59
2021/07/28 00:32:17;;;;;;;;;;;25.40;69.80;;;;;;5134490;27;19984;-59
2021/07/28 00:34:44;;;;;;;;;;;25.40;69.90;;;;;;5135289;27;20344;-61
2021/07/28 00:37:11;;;;;;;;;;;25.40;69.90;;;;;;5120822;27;19923;-60
2021/07/28 00:39:38;;;;;;;;;;;25.40;70.00;;;;;;5135116;27;19928;-60
2021/07/28 00:42:05;;;;;;;;;;;25.40;69.80;;;;;;5117182;27;19931;-60
2021/07/28 00:44:32;;;;;;;;;;;25.40;69.80;;;;;;5132771;27;19923;-59
2021/07/28 00:46:59;;;;;;;;;;;25.40;69.70;;;;;;5135155;27;20362;-59
2021/07/28 00:49:26;;;;;;;;;;;25.40;69.80;;;;;;5133719;27;19924;-59
2021/07/28 00:51:55;;;;;;;;;;;25.40;69.80;;;;;;5133598;27;19953;-59
2021/07/28 00:54:23;;;;;;;;;;;25.40;69.80;;;;;;5116692;27;19927;-58
2021/07/28 00:56:50;;;;;;;;;;;25.40;69.70;;;;;;5130987;27;20302;-59
2021/07/28 00:59:17;;;;;;;;;;;25.40;69.60;;;;;;5131847;27;20018;-59
2021/07/28 01:01:48;;;;;;;;;;;25.40;69.70;;;;;;5134903;27;19950;-59
2021/07/28 01:04:15;;;;;;;;;;;25.40;69.80;;;;;;5133062;27;20006;-59
2021/07/28 01:06:42;;;;;;;;;;;25.40;69.80;;;;;;5133075;27;20015;-59
2021/07/28 01:09:09;;;;;;;;;;;25.40;70.60;;;;;;5132249;27;19963;-59
2021/07/28 01:11:37;;;;;;;;;;;25.40;69.80;;;;;;5133167;27;19923;-60
2021/07/28 01:14:05;;;;;;;;;;;25.40;69.80;;;;;;5134311;27;19923;-59
2021/07/28 01:16:36;;;;;;;;;;;25.40;69.90;;;;;;5131634;27;19924;-58
2021/07/28 01:19:10;;;;;;;;;;;25.40;69.80;;;;;;5132944;27;19924;-59
2021/07/28 01:21:37;;;;;;;;;;;25.40;69.90;;;;;;5134210;27;19923;-60
2021/07/28 01:24:06;;;;;;;;;;;25.40;69.90;;;;;;5132698;27;19985;-59
2021/07/28 01:26:33;;;;;;;;;;;25.40;69.90;;;;;;5132836;27;19927;-59
2021/07/28 01:29:00;;;;;;;;;;;25.40;69.80;;;;;;5134113;27;20010;-59
2021/07/28 01:31:27;;;;;;;;;;;25.40;69.80;;;;;;5130345;27;19923;-59
2021/07/28 01:33:55;;;;;;;;;;;25.40;69.90;;;;;;5120385;27;19947;-59
2021/07/28 01:36:22;;;;;;;;;;;25.40;69.80;;;;;;5128007;27;19930;-60
2021/07/28 01:38:49;;;;;;;;;;;25.40;69.80;;;;;;5133706;27;19948;-59
2021/07/28 01:41:18;;;;;;;;;;;25.40;70.00;;;;;;5132356;27;19924;-59
2021/07/28 01:43:45;;;;;;;;;;;25.40;69.90;;;;;;5132273;27;19924;-59
2021/07/28 01:46:14;;;;;;;;;;;25.40;70.10;;;;;;5115253;27;19923;-59
2021/07/28 01:48:41;;;;;;;;;;;25.40;70.00;;;;;;5131446;27;19970;-60
2021/07/28 01:51:08;;;;;;;;;;;25.40;70.10;;;;;;5132669;27;19980;-61
2021/07/28 01:53:35;;;;;;;;;;;25.40;70.00;;;;;;5132581;27;19953;-60
2021/07/28 01:56:03;;;;;;;;;;;25.40;70.00;;;;;;5130923;27;20324;-60
2021/07/28 01:58:30;;;;;;;;;;;25.40;69.80;;;;;;5133317;27;19966;-60
2021/07/28 02:00:57;;;;;;;;;;;25.40;70.00;;;;;;5133795;27;19966;-60
2021/07/28 02:03:24;;;;;;;;;;;25.40;69.90;;;;;;5133617;27;19995;-60
2021/07/28 02:05:51;;;;;;;;;;;25.40;69.80;;;;;;5114442;27;19923;-60
2021/07/28 02:08:18;;;;;;;;;;;25.40;69.80;;;;;;5133312;27;20373;-60
2021/07/28 02:10:46;;;;;;;;;;;25.40;69.90;;;;;;5115492;27;19963;-60
2021/07/28 02:13:18;;;;;;;;;;;25.40;70.00;;;;;;5133612;27;19984;-60
2021/07/28 02:15:46;;;;;;;;;;;25.40;69.90;;;;;;5130571;27;19923;-60
2021/07/28 02:18:13;;;;;;;;;;;25.40;70.00;;;;;;5133543;27;20329;-60
2021/07/28 02:20:40;;;;;;;;;;;25.40;70.00;;;;;;5133229;28;19923;-60
2021/07/28 02:23:07;;;;;;;;;;;25.40;70.00;;;;;;5131975;28;19923;-59
2021/07/28 02:25:34;;;;;;;;;;;25.40;70.00;;;;;;5131325;28;19966;-59
2021/07/28 02:28:01;;;;;;;;;;;25.40;70.00;;;;;;5131800;28;19927;-60
2021/07/28 02:30:28;;;;;;;;;;;25.40;70.00;;;;;;5133382;28;20319;-60
2021/07/28 02:32:55;;;;;;;;;;;25.40;69.80;;;;;;5132236;28;20325;-60
2021/07/28 02:35:22;;;;;;;;;;;25.40;70.00;;;;;;5112865;28;20053;-60
2021/07/28 02:37:49;;;;;;;;;;;25.40;70.00;;;;;;5131842;28;20260;-60
2021/07/28 02:40:18;;;;;;;;;;;25.40;70.00;;;;;;5131704;28;19927;-60
2021/07/28 02:42:46;;;;;;;;;;;25.40;70.00;;;;;;5133070;28;19931;-60
2021/07/28 02:45:13;;;;;;;;;;;25.40;70.10;;;;;;5131867;28;19992;-60
2021/07/28 02:47:40;;;;;;;;;;;25.40;70.10;;;;;;5131021;28;20010;-60
2021/07/28 02:50:07;;;;;;;;;;;25.40;70.10;;;;;;5114653;28;19931;-61
2021/07/28 02:52:34;;;;;;;;;;;25.40;70.20;;;;;;5112980;28;20317;-60
2021/07/28 02:55:06;;;;;;;;;;;25.40;70.20;;;;;;5130172;28;19931;-60
2021/07/28 02:57:34;;;;;;;;;;;25.40;70.20;;;;;;5131585;28;19973;-60
2021/07/28 03:00:01;;;;;;;;;;;25.40;70.30;;;;;;5113180;28;20367;-60
2021/07/28 03:02:28;;;;;;;;;;;25.40;70.20;;;;;;5130600;28;19923;-60
2021/07/28 03:04:55;;;;;;;;;;;25.40;70.30;;;;;;5131357;28;19935;-60
2021/07/28 03:07:22;;;;;;;;;;;25.40;70.30;;;;;;5132673;28;19923;-60
2021/07/28 03:09:49;;;;;;;;;;;25.40;70.30;;;;;;5132738;28;19970;-60
2021/07/28 03:12:16;;;;;;;;;;;25.40;70.40;;;;;;5131354;28;19945;-60
2021/07/28 03:14:43;;;;;;;;;;;25.40;70.30;;;;;;5113552;28;19927;-59
2021/07/28 03:17:10;;;;;;;;;;;25.40;70.20;;;;;;5133265;27;19924;-60
2021/07/28 03:19:37;;;;;;;;;;;25.40;70.20;;;;;;5134945;27;19973;-60
2021/07/28 03:22:04;;;;;;;;;;;25.40;70.30;;;;;;5136579;27;19923;-60
2021/07/28 03:24:31;;;;;;;;;;;25.40;70.30;;;;;;5135157;27;19924;-60
2021/07/28 03:26:58;;;;;;;;;;;25.40;70.40;;;;;;5134922;27;20376;-60
2021/07/28 03:29:25;;;;;;;;;;;25.40;70.40;;;;;;5136015;27;19923;-60
2021/07/28 03:31:52;;;;;;;;;;;25.40;70.40;;;;;;5134966;27;20023;-60
2021/07/28 03:34:19;;;;;;;;;;;25.40;70.40;;;;;;5136319;27;20014;-60
2021/07/28 03:36:46;;;;;;;;;;;25.40;70.40;;;;;;5123267;27;19970;-59
2021/07/28 03:39:13;;;;;;;;;;;25.40;70.30;;;;;;5117642;27;20780;-59
2021/07/28 03:41:40;;;;;;;;;;;25.40;70.40;;;;;;5135479;27;20447;-60
2021/07/28 03:44:08;;;;;;;;;;;25.40;70.40;;;;;;5134934;27;20039;-61
2021/07/28 03:46:35;;;;;;;;;;;25.40;70.30;;;;;;5135017;27;19923;-60
2021/07/28 03:49:02;;;;;;;;;;;25.40;70.30;;;;;;5135172;27;20286;-60
2021/07/28 03:51:29;;;;;;;;;;;25.40;70.30;;;;;;5134699;27;19972;-60
2021/07/28 03:53:57;;;;;;;;;;;25.50;70.20;;;;;;5135026;27;20282;-60
2021/07/28 03:56:24;;;;;;;;;;;25.50;70.30;;;;;;5133132;27;19968;-60
2021/07/28 03:58:52;;;;;;;;;;;25.50;70.30;;;;;;5116317;27;19972;-60
2021/07/28 04:01:20;;;;;;;;;;;25.50;70.20;;;;;;5136051;27;19977;-59
2021/07/28 04:03:49;;;;;;;;;;;25.50;70.30;;;;;;5133799;27;20316;-59
2021/07/28 04:06:16;;;;;;;;;;;25.50;70.30;;;;;;5135988;27;19969;-59
2021/07/28 04:08:43;;;;;;;;;;;25.40;70.20;;;;;;5134267;27;19973;-60
2021/07/28 04:11:10;;;;;;;;;;;25.50;70.20;;;;;;5134134;27;19974;-60
2021/07/28 04:13:37;;;;;;;;;;;25.50;70.20;;;;;;5135280;27;20002;-60
2021/07/28 04:16:04;;;;;;;;;;;25.50;70.20;;;;;;5128913;27;20021;-59
2021/07/28 04:18:31;;;;;;;;;;;25.50;70.30;;;;;;5118407;27;20406;-60
2021/07/28 04:20:59;;;;;;;;;;;25.40;70.30;;;;;;5122525;27;19963;-60
2021/07/28 04:23:26;;;;;;;;;;;25.50;70.30;;;;;;5134141;27;20278;-59
2021/07/28 04:25:53;;;;;;;;;;;25.50;70.30;;;;;;5114783;27;19931;-60
2021/07/28 04:28:20;;;;;;;;;;;25.50;70.10;;;;;;5133256;27;19924;-59
2021/07/28 04:30:47;;;;;;;;;;;25.50;70.00;;;;;;5135475;27;19923;-59
2021/07/28 04:33:14;;;;;;;;;;;25.50;70.00;;;;;;5134061;27;20423;-60
2021/07/28 04:35:41;;;;;;;;;;;25.50;69.90;;;;;;5130573;27;19927;-60
2021/07/28 04:38:07;;;;;;;;;;;25.50;69.90;;;;;;5134878;27;19923;-60
2021/07/28 04:40:35;;;;;;;;;;;25.60;69.80;;;;;;5135069;27;19954;-60
2021/07/28 04:43:02;;;;;;;;;;;25.60;69.70;;;;;;5135133;27;19923;-61
2021/07/28 04:45:29;;;;;;;;;;;25.60;69.70;;;;;;5134232;27;19972;-61
2021/07/28 04:47:56;;;;;;;;;;;25.60;69.80;;;;;;5134709;27;19927;-60
2021/07/28 04:50:23;;;;;;;;;;;25.60;69.70;;;;;;5133555;27;19923;-60
2021/07/28 04:52:50;;;;;;;;;;;25.60;69.80;;;;;;5132351;27;19931;-60
2021/07/28 04:55:17;;;;;;;;;;;25.60;69.70;;;;;;5134608;27;19923;-60
2021/07/28 04:57:44;;;;;;;;;;;25.60;69.60;;;;;;5134228;27;20014;-60
2021/07/28 05:00:12;;;;;;;;;;;25.70;69.60;;;;;;5133185;27;20010;-60
2021/07/28 05:02:39;;;;;;;;;;;25.70;69.50;;;;;;5134952;27;19923;-60
2021/07/28 05:05:06;;;;;;;;;;;25.70;69.40;;;;;;5134604;27;19990;-60
2021/07/28 05:07:33;;;;;;;;;;;25.80;69.40;;;;;;5134494;27;19968;-60
2021/07/28 05:10:00;;;;;;;;;;;25.80;69.20;;;;;;5132831;27;19959;-60
2021/07/28 05:12:27;;;;;;;;;;;25.80;69.20;;;;;;5132787;27;19930;-60
2021/07/28 05:14:55;;;;;;;;;;;25.90;69.10;;;;;;5134288;27;20431;-60
2021/07/28 05:17:24;;;;;;;;;;;25.90;68.90;;;;;;5132674;27;20074;-60
2021/07/28 05:19:52;;;;;;;;;;;25.90;68.80;;;;;;5132591;27;19964;-60
2021/07/28 05:22:19;;;;;;;;;;;26.00;68.80;;;;;;5134477;27;19992;-60
2021/07/28 05:24:46;;;;;;;;;;;26.00;68.60;;;;;;5134203;27;19931;-60
2021/07/28 05:27:13;;;;;;;;;;;26.10;68.50;;;;;;5133777;27;20014;-60
2021/07/28 05:29:40;;;;;;;;;;;26.10;68.50;;;;;;5132726;27;20394;-60
2021/07/28 05:32:07;;;;;;;;;;;26.10;68.30;;;;;;5133068;27;20350;-60
2021/07/28 05:34:34;;;;;;;;;;;26.10;68.50;;;;;;5131964;27;19969;-59
2021/07/28 05:37:01;;;;;;;;;;;26.20;68.50;;;;;;5096672;28;19924;-61
2021/07/28 05:39:28;;;;;;;;;;;26.20;68.20;;;;;;5133398;27;20023;-60
2021/07/28 05:41:57;;;;;;;;;;;26.20;68.40;;;;;;5133010;27;19923;-61
2021/07/28 05:44:25;;;;;;;;;;;26.20;68.40;;;;;;5132256;27;19924;-59
2021/07/28 05:46:52;;;;;;;;;;;26.20;68.40;;;;;;5132593;27;20287;-60
2021/07/28 05:49:19;;;;;;;;;;;26.20;68.30;;;;;;5132011;27;20003;-60
2021/07/28 05:51:46;;;;;;;;;;;26.20;68.20;;;;;;5132579;27;19924;-60
2021/07/28 05:54:13;;;;;;;;;;;26.20;68.10;;;;;;5121611;27;19924;-60
2021/07/28 05:56:40;;;;;;;;;;;26.20;68.20;;;;;;5126296;27;19927;-60
2021/07/28 05:59:07;;;;;;;;;;;26.20;68.00;;;;;;5133714;27;19976;-61
2021/07/28 06:01:34;;;;;;;;;;;26.30;68.10;;;;;;5131977;27;19975;-59
2021/07/28 06:04:01;;;;;;;;;;;26.30;67.80;;;;;;5132479;27;19923;-60
2021/07/28 06:06:28;;;;;;;;;;;26.30;67.80;;;;;;5132210;27;19970;-60
2021/07/28 06:08:55;;;;;;;;;;;26.40;67.90;;;;;;5112571;27;20115;-60
2021/07/28 06:11:22;;;;;;;;;;;26.40;67.70;;;;;;5132012;27;19977;-59
2021/07/28 06:13:50;;;;;;;;;;;26.40;67.80;;;;;;5132574;27;19927;-60
2021/07/28 06:16:17;;;;;;;;;;;26.40;67.70;;;;;;5132617;27;19923;-59
2021/07/28 06:18:44;;;;;;;;;;;26.50;67.70;;;;;;5133614;27;19923;-60
2021/07/28 06:21:11;;;;;;;;;;;26.50;67.40;;;;;;5131896;27;19963;-60
2021/07/28 06:23:38;;;;;;;;;;;26.50;67.30;;;;;;5131984;28;20417;-60
2021/07/28 06:26:05;;;;;;;;;;;26.50;67.30;;;;;;5131596;28;19924;-59
2021/07/28 06:28:33;;;;;;;;;;;26.50;67.50;;;;;;5135262;28;19931;-60
2021/07/28 06:31:01;;;;;;;;;;;26.50;67.50;;;;;;5133270;28;19924;-61
2021/07/28 06:33:28;;;;;;;;;;;26.50;67.40;;;;;;5132157;28;20028;-61
2021/07/28 06:35:55;;;;;;;;;;;26.50;67.40;;;;;;5123655;28;20010;-61
2021/07/28 06:38:22;;;;;;;;;;;26.60;67.50;;;;;;5132561;28;19930;-58
2021/07/28 06:40:49;;;;;;;;;;;26.60;67.30;;;;;;5132987;28;19946;-61
2021/07/28 06:43:16;;;;;;;;;;;26.60;67.10;;;;;;5113637;28;19967;-62
2021/07/28 06:45:43;;;;;;;;;;;26.60;66.70;;;;;;5112564;28;19972;-61
2021/07/28 06:48:10;;;;;;;;;;;26.60;66.60;;;;;;5120255;28;19924;-61
2021/07/28 06:50:37;;;;;;;;;;;26.60;66.50;;;;;;5126351;28;20286;-61
2021/07/28 06:53:04;;;;;;;;;;;26.60;66.30;;;;;;5133413;27;20108;-61
2021/07/28 06:55:31;;;;;;;;;;;26.60;66.00;;;;;;5136757;27;19943;-61
2021/07/28 06:57:58;;;;;;;;;;;26.70;65.90;;;;;;5136877;27;20470;-61
2021/07/28 07:00:25;;;;;;;;;;;26.70;65.80;;;;;;5135935;27;19923;-61
2021/07/28 07:03:00;;;;;;;;;;;26.70;65.80;;;;;;5135048;27;19955;-61
2021/07/28 07:05:28;;;;;;;;;;;26.70;65.50;;;;;;5135637;27;19924;-61
2021/07/28 07:07:54;;;;;;;;;;;26.80;65.70;;;;;;5130971;27;20393;-61
2021/07/28 07:10:22;;;;;;;;;;;26.80;65.40;;;;;;5106233;27;20014;-61
2021/07/28 07:12:49;;;;;;;;;;;26.80;65.40;;;;;;5134577;27;19988;-61
2021/07/28 07:15:16;;;;;;;;;;;26.80;65.40;;;;;;5136620;27;19932;-61
2021/07/28 07:17:43;;;;;;;;;;;26.80;65.40;;;;;;5135438;27;20356;-61
2021/07/28 07:20:10;;;;;;;;;;;26.80;65.20;;;;;;5135794;27;19972;-61
2021/07/28 07:22:37;;;;;;;;;;;26.80;65.20;;;;;;5118596;27;19957;-61
2021/07/28 07:25:05;;;;;;;;;;;26.80;65.00;;;;;;5118797;27;19963;-61
2021/07/28 07:27:32;;;;;;;;;;;26.80;65.10;;;;;;5134842;27;19962;-61
2021/07/28 07:29:59;;;;;;;;;;;26.80;65.00;;;;;;5136934;27;19924;-61
2021/07/28 07:32:29;;;;;;;;;;;26.80;65.00;;;;;;5136641;27;20346;-61
2021/07/28 07:34:57;;;;;;;;;;;26.80;65.10;;;;;;5135973;27;19931;-62
2021/07/28 07:37:25;;;;;;;;;;;26.80;65.10;;;;;;5134823;27;19955;-61
2021/07/28 07:39:53;;;;;;;;;;;26.80;65.10;;;;;;5133718;27;19930;-61
2021/07/28 07:42:20;;;;;;;;;;;26.80;65.00;;;;;;5136178;27;19923;-61
2021/07/28 07:44:48;;;;;;;;;;;26.80;65.00;;;;;;5122628;27;19924;-62
2021/07/28 07:47:16;;;;;;;;;;;26.80;64.90;;;;;;5130779;27;20014;-61
2021/07/28 07:49:43;;;;;;;;;;;26.90;64.80;;;;;;5136009;27;19959;-61
2021/07/28 07:52:10;;;;;;;;;;;26.80;64.80;;;;;;5135929;27;19927;-62
2021/07/28 07:54:37;;;;;;;;;;;26.90;64.70;;;;;;5133379;27;19980;-62
2021/07/28 07:57:04;;;;;;;;;;;26.90;64.90;;;;;;5133734;27;19923;-61
2021/07/28 07:59:31;;;;;;;;;;;26.90;64.90;;;;;;5135628;27;19931;-61
2021/07/28 08:01:58;;;;;;;;;;;26.90;64.60;;;;;;5135880;27;19975;-61
2021/07/28 08:04:25;;;;;;;;;;;26.90;64.50;;;;;;5133588;27;19923;-61
2021/07/28 08:06:52;;;;;;;;;;;26.90;64.50;;;;;;5134424;27;19973;-59
2021/07/28 08:09:19;;;;;;;;;;;26.90;64.50;;;;;;5117293;27;19954;-59
2021/07/28 08:11:46;;;;;;;;;;;26.90;64.70;;;;;;5135854;27;19953;-59
2021/07/28 08:14:13;;;;;;;;;;;26.90;64.70;;;;;;5135605;27;20260;-60
2021/07/28 08:16:40;;;;;;;;;;;26.90;64.60;;;;;;5133913;27;19972;-59
2021/07/28 08:19:07;;;;;;;;;;;26.90;64.50;;;;;;5133963;27;19928;-59
2021/07/28 08:21:34;;;;;;;;;;;26.90;64.50;;;;;;5134078;27;19932;-60
2021/07/28 08:24:01;;;;;;;;;;;26.90;64.40;;;;;;5133929;27;19935;-60
2021/07/28 08:26:28;;;;;;;;;;;26.90;64.50;;;;;;5135377;27;19932;-60
2021/07/28 08:28:55;;;;;;;;;;;27.00;64.50;;;;;;5135205;27;20268;-60
2021/07/28 08:31:22;;;;;;;;;;;27.00;64.60;;;;;;5134107;27;20382;-60
2021/07/28 08:33:49;;;;;;;;;;;27.00;64.50;;;;;;5114684;27;19927;-60
2021/07/28 08:36:17;;;;;;;;;;;27.00;64.30;;;;;;5123164;27;19953;-60
2021/07/28 08:38:44;;;;;;;;;;;27.00;64.10;;;;;;5130032;27;20100;-60
2021/07/28 08:41:11;;;;;;;;;;;26.90;63.80;;;;;;5134316;27;19927;-60
2021/07/28 08:43:39;;;;;;;;;;;27.00;64.20;;;;;;5115441;27;19923;-60
2021/07/28 08:46:08;;;;;;;;;;;27.00;64.10;;;;;;5132217;27;19927;-60
2021/07/28 08:48:35;;;;;;;;;;;27.00;64.40;;;;;;5132467;27;19924;-60
2021/07/28 08:51:04;;;;;;;;;;;27.00;64.10;;;;;;5116395;27;20401;-59
2021/07/28 08:53:31;;;;;;;;;;;27.00;64.30;;;;;;5133471;27;19933;-60
2021/07/28 08:56:00;;;;;;;;;;;27.00;63.90;;;;;;5116204;27;19959;-60
2021/07/28 08:58:27;;;;;;;;;;;27.00;64.10;;;;;;5134772;27;19989;-61
2021/07/28 09:00:54;;;;;;;;;;;27.00;64.10;;;;;;5133458;27;19975;-60
2021/07/28 09:03:21;;;;;;;;;;;27.00;64.00;;;;;;5134645;27;20429;-60
2021/07/28 09:05:50;;;;;;;;;;;27.00;64.00;;;;;;5134064;27;19971;-60
2021/07/28 09:08:26;;;;;;;;;;;27.00;64.20;;;;;;5115412;27;20432;-60
2021/07/28 09:10:57;;;;;;;;;;;27.00;64.20;;;;;;5133359;27;19947;-60
2021/07/28 09:13:25;;;;;;;;;;;27.00;64.30;;;;;;5131982;27;19974;-60
2021/07/28 09:15:57;;;;;;;;;;;27.00;64.00;;;;;;5134319;27;19923;-60
2021/07/28 09:18:51;;;;;;;;;;;27.00;64.30;;;;;;5133089;27;20272;-60
2021/07/28 09:21:21;;;;;;;;;;;27.00;64.00;;;;;;5128341;27;19923;-60
2021/07/28 09:23:48;;;;;;;;;;;27.00;64.30;;;;;;5134303;27;19923;-61
2021/07/28 09:26:37;;;;;;;;;;;27.10;64.40;;;;;;5128995;27;19924;-60
2021/07/28 09:29:21;;;;;;;;;;;27.10;64.20;;;;;;5121117;27;19923;-60
2021/07/28 09:31:52;;;;;;;;;;;27.10;64.20;;;;;;5134316;27;19959;-60
2021/07/28 09:34:23;;;;;;;;;;;27.10;64.10;;;;;;5133076;27;19924;-60
2021/07/28 09:36:55;;;;;;;;;;;27.10;64.00;;;;;;5127387;27;19923;-60
2021/07/28 09:39:32;;;;;;;;;;;27.10;63.80;;;;;;5133344;27;19950;-60
2021/07/28 09:42:25;;;;;;;;;;;27.10;63.50;;;;;;5133830;27;19976;-60
2021/07/28 09:44:59;;;;;;;;;;;27.10;63.20;;;;;;5129651;27;19946;-61
2021/07/28 09:47:26;;;;;;;;;;;27.10;63.50;;;;;;5133795;27;20367;-60
2021/07/28 09:49:56;;;;;;;;;;;27.10;62.80;;;;;;5133718;27;19976;-60
2021/07/28 09:52:29;;;;;;;;;;;27.10;63.10;;;;;;5132042;27;20390;-60
2021/07/28 09:54:57;;;;;;;;;;;27.10;63.20;;;;;;5132447;27;19946;-60
2021/07/28 09:57:25;;;;;;;;;;;27.10;63.20;;;;;;5126673;27;19924;-60
2021/07/28 09:59:55;;;;;;;;;;;27.10;63.40;;;;;;5121155;27;19984;-60
2021/07/28 10:02:23;;;;;;;;;;;27.10;63.20;;;;;;5135051;27;19984;-59
2021/07/28 10:04:52;;;;;;;;;;;27.10;63.10;;;;;;5136085;27;19931;-60
2021/07/28 10:07:22;;;;;;;;;;;27.10;63.20;;;;;;5134148;27;19923;-59
2021/07/28 10:09:50;;;;;;;;;;;27.10;63.10;;;;;;5132897;27;19976;-60
2021/07/28 10:12:17;;;;;;;;;;;27.10;63.20;;;;;;5133723;27;19929;-59
2021/07/28 10:14:45;;;;;;;;;;;27.10;63.40;;;;;;5134096;27;20340;-60
2021/07/28 10:17:12;;;;;;;;;;;27.10;63.50;;;;;;5131237;27;20025;-60
2021/07/28 10:19:39;;;;;;;;;;;27.10;63.00;;;;;;5132187;27;19924;-60
2021/07/28 10:22:27;;;;;;;;;;;27.20;63.50;;;;;;5102194;27;19924;-60
2021/07/28 10:24:54;;;;;;;;;;;27.10;63.40;;;;;;5133820;27;20307;-60
2021/07/28 10:27:22;;;;;;;;;;;27.20;63.00;;;;;;5114592;28;20328;-60
2021/07/28 10:29:49;;;;;;;;;;;27.10;63.30;;;;;;5133471;28;19970;-60
2021/07/28 10:32:29;;;;;;;;;;;27.10;63.00;;;;;;5115347;28;20400;-60
2021/07/28 10:35:16;;;;;;;;;;;27.10;63.40;;;;;;5133549;28;20294;-60
2021/07/28 10:37:43;;;;;;;;;;;27.20;63.50;;;;;;5115522;28;19953;-61
2021/07/28 10:40:32;;;;;;;;;;;27.20;63.50;;;;;;5133105;28;19932;-59
2021/07/28 10:43:00;;;;;;;;;;;27.20;63.20;;;;;;5118259;28;19954;-61
2021/07/28 10:46:05;;;;;;;;;;;27.20;63.40;;;;;;5130834;28;19923;-60
2021/07/28 10:48:41;;;;;;;;;;;27.20;63.30;;;;;;5049982;28;19929;-60
2021/07/28 10:51:08;;;;;;;;;;;27.20;63.10;;;;;;5048562;28;19925;-60
2021/07/28 10:53:47;;;;;;;;;;;27.20;63.00;;;;;;5049984;28;19924;-59
2021/07/28 10:56:14;;;;;;;;;;;27.20;62.70;;;;;;5048500;28;19948;-59
2021/07/28 10:58:41;;;;;;;;;;;27.20;63.00;;;;;;5048341;28;19924;-60
2021/07/28 11:01:08;;;;;;;;;;;27.20;62.90;;;;;;5046588;28;20352;-60
2021/07/28 11:03:36;;;;;;;;;;;27.20;62.90;;;;;;5049988;28;19925;-59
2021/07/28 11:06:14;;;;;;;;;;;27.20;62.90;;;;;;5048598;28;20376;-60
2021/07/28 11:08:41;;;;;;;;;;;27.20;62.80;;;;;;5047234;28;19965;-59
2021/07/28 11:11:08;;;;;;;;;;;27.20;62.80;;;;;;5030880;28;19932;-60
2021/07/28 11:13:43;;;;;;;;;;;27.20;62.70;;;;;;5031445;28;19971;-60
2021/07/28 11:16:10;;;;;;;;;;;27.20;62.80;;;;;;5032123;28;20292;-60
2021/07/28 11:18:40;;;;;;;;;;;27.20;62.80;;;;;;5048408;28;19935;-59
2021/07/28 11:21:07;;;;;;;;;;;27.20;62.80;;;;;;5048034;28;19936;-60
2021/07/28 11:23:33;;;;;;;;;;;27.20;62.80;;;;;;5106145;28;19974;-60
2021/07/28 11:26:01;;;;;;;;;;;27.20;62.70;;;;;;5133120;28;19924;-59
2021/07/28 11:28:28;;;;;;;;;;;27.20;62.70;;;;;;5132139;28;20010;-59
2021/07/28 11:31:05;;;;;;;;;;;27.20;62.80;;;;;;5130249;28;19923;-60
2021/07/28 11:33:32;;;;;;;;;;;27.20;62.50;;;;;;5132814;28;19938;-60
2021/07/28 11:35:59;;;;;;;;;;;27.30;62.50;;;;;;5132415;28;19923;-59
2021/07/28 11:38:28;;;;;;;;;;;27.30;62.50;;;;;;5119973;28;19931;-59
2021/07/28 11:40:57;;;;;;;;;;;27.30;62.30;;;;;;5119895;27;19953;-60
2021/07/28 11:43:26;;;;;;;;;;;27.30;62.20;;;;;;5113421;27;19969;-59
2021/07/28 11:46:00;;;;;;;;;;;27.30;62.00;;;;;;5136397;27;19938;-60
2021/07/28 11:48:28;;;;;;;;;;;27.40;62.10;;;;;;5122668;27;20014;-60
2021/07/28 11:50:55;;;;;;;;;;;27.40;62.00;;;;;;5119784;27;19924;-60
2021/07/28 11:53:31;;;;;;;;;;;27.30;61.70;;;;;;5128684;27;19963;-59
2021/07/28 11:56:11;;;;;;;;;;;27.40;61.80;;;;;;5132880;27;19924;-60
2021/07/28 11:58:42;;;;;;;;;;;27.40;61.80;;;;;;5133565;27;19956;-60
2021/07/28 12:01:26;;;;;;;;;;;27.40;61.70;;;;;;5136126;27;20383;-60
2021/07/28 12:03:57;;;;;;;;;;;27.40;61.80;;;;;;5130352;27;19976;-60
2021/07/28 12:06:38;;;;;;;;;;;27.40;61.50;;;;;;5134870;27;19924;-59
2021/07/28 12:09:08;;;;;;;;;;;27.40;61.80;;;;;;5135044;27;19973;-60
2021/07/28 12:11:44;;;;;;;;;;;27.40;61.80;;;;;;5134417;27;20015;-60
2021/07/28 12:14:21;;;;;;;;;;;27.30;61.70;;;;;;5136276;27;20357;-60
2021/07/28 12:16:48;;;;;;;;;;;27.30;61.80;;;;;;5135825;27;20018;-60
2021/07/28 12:19:21;;;;;;;;;;;27.40;61.80;;;;;;5134246;27;19923;-60
2021/07/28 12:21:51;;;;;;;;;;;27.40;61.80;;;;;;5123464;27;19924;-60
2021/07/28 12:24:28;;;;;;;;;;;27.30;61.70;;;;;;5130947;27;19923;-59
2021/07/28 12:27:15;;;;;;;;;;;27.40;61.80;;;;;;5123325;27;19953;-59
2021/07/28 12:29:55;;;;;;;;;;;27.40;61.80;;;;;;5117159;27;19963;-59
2021/07/28 12:32:32;;;;;;;;;;;27.30;61.70;;;;;;5133735;27;19931;-60
2021/07/28 12:34:59;;;;;;;;;;;27.40;61.80;;;;;;5134051;27;19931;-59
2021/07/28 12:37:26;;;;;;;;;;;27.40;61.80;;;;;;5130378;27;19923;-59
2021/07/28 12:39:57;;;;;;;;;;;27.40;61.80;;;;;;5135811;27;19927;-60
2021/07/28 12:42:29;;;;;;;;;;;27.40;61.70;;;;;;5133555;27;19923;-59
2021/07/28 12:44:57;;;;;;;;;;;27.40;61.60;;;;;;5133671;27;19966;-59
2021/07/28 12:47:24;;;;;;;;;;;27.40;61.40;;;;;;5134031;27;19962;-60
2021/07/28 12:49:52;;;;;;;;;;;27.50;61.40;;;;;;5134196;27;19927;-60
2021/07/28 12:52:19;;;;;;;;;;;27.50;61.30;;;;;;5133571;27;20263;-59
2021/07/28 12:54:46;;;;;;;;;;;27.50;61.10;;;;;;5133651;27;19924;-59
2021/07/28 12:57:14;;;;;;;;;;;27.60;61.10;;;;;;5133732;27;19931;-59
2021/07/28 12:59:41;;;;;;;;;;;27.60;61.00;;;;;;5134027;27;20066;-60
2021/07/28 13:02:08;;;;;;;;;;;27.60;60.80;;;;;;5133465;27;20428;-60
2021/07/28 13:04:38;;;;;;;;;;;27.60;60.70;;;;;;5131660;27;21306;-60
2021/07/28 13:07:12;;;;;;;;;;;27.60;60.70;;;;;;5132425;27;20298;-59
2021/07/28 13:09:39;;;;;;;;;;;27.60;60.70;;;;;;5135106;27;19966;-59
2021/07/28 13:12:06;;;;;;;;;;;27.60;60.80;;;;;;5116661;27;19939;-60
2021/07/28 13:14:33;;;;;;;;;;;27.50;60.80;;;;;;5132944;27;19923;-60
2021/07/28 13:17:00;;;;;;;;;;;27.50;60.60;;;;;;5131718;27;19927;-59
2021/07/28 13:19:27;;;;;;;;;;;27.40;60.90;;;;;;5117534;27;19954;-60
2021/07/28 13:21:54;;;;;;;;;;;27.40;61.70;;;;;;5117149;27;19923;-59
2021/07/28 13:24:21;;;;;;;;;;;27.30;62.10;;;;;;5115140;27;19977;-59
2021/07/28 13:26:48;;;;;;;;;;;27.20;62.60;;;;;;5134102;27;19923;-60
2021/07/28 13:29:15;;;;;;;;;;;27.10;62.90;;;;;;5132844;27;19924;-61
2021/07/28 13:31:42;;;;;;;;;;;27.10;62.90;;;;;;5115793;27;20002;-60
2021/07/28 13:34:09;;;;;;;;;;;27.10;63.10;;;;;;5133628;27;19927;-60
2021/07/28 13:36:36;;;;;;;;;;;27.10;63.20;;;;;;5119181;27;19972;-59
2021/07/28 13:39:03;;;;;;;;;;;27.00;63.00;;;;;;5129307;27;20321;-60
2021/07/28 13:41:30;;;;;;;;;;;27.00;63.60;;;;;;5133846;27;19923;-59
2021/07/28 13:43:58;;;;;;;;;;;26.90;63.70;;;;;;5132663;27;19931;-60
2021/07/28 13:46:29;;;;;;;;;;;26.80;64.00;;;;;;5133728;27;19923;-59
2021/07/28 13:48:57;;;;;;;;;;;26.80;64.50;;;;;;5132363;27;19993;-60
2021/07/28 13:51:24;;;;;;;;;;;26.70;64.50;;;;;;5133897;27;20290;-60
2021/07/28 13:53:51;;;;;;;;;;;26.70;65.00;;;;;;5115367;27;19958;-60
2021/07/28 13:56:18;;;;;;;;;;;26.70;65.00;;;;;;5132456;27;19969;-59
2021/07/28 13:58:45;;;;;;;;;;;26.70;65.20;;;;;;5133847;27;19929;-59
2021/07/28 14:01:12;;;;;;;;;;;26.70;65.30;;;;;;5133203;27;20375;-59
2021/07/28 14:03:40;;;;;;;;;;;26.70;65.50;;;;;;5115704;27;20394;-59
2021/07/28 14:06:07;;;;;;;;;;;26.70;65.50;;;;;;5129264;27;20383;-59
2021/07/28 14:08:34;;;;;;;;;;;26.80;65.30;;;;;;5120392;27;19972;-59
2021/07/28 14:11:07;;;;;;;;;;;26.80;65.20;;;;;;5114280;27;19928;-59
2021/07/28 14:13:34;;;;;;;;;;;26.90;65.00;;;;;;5130592;27;20325;-59
2021/07/28 14:16:04;;;;;;;;;;;26.90;64.80;;;;;;5118658;28;19947;-59
2021/07/28 14:18:31;;;;;;;;;;;26.80;64.80;;;;;;5132415;27;19923;-59
2021/07/28 14:20:58;;;;;;;;;;;26.90;64.80;;;;;;5133676;27;20034;-59
2021/07/28 14:23:25;;;;;;;;;;;26.90;65.10;;;;;;5115933;28;20014;-59
2021/07/28 14:25:52;;;;;;;;;;;26.90;65.10;;;;;;5133396;27;20404;-59
2021/07/28 14:28:19;;;;;;;;;;;26.90;65.00;;;;;;5132832;27;19977;-59